Time;durP1;ratioP1;P1;durP2;ratioP2;P2;SDS_P1;SDS_P2;PMS_P1;PMS_P2;Temp;Humidity;BMP_temperature;BMP_pressure;BME280_temperature;BME280_humidity;BME280_pressure;Samples;Min_cycle;Max_cycle;Signal;HPM_P1;HPM_P2
2021/12/01 00:00:26;;;;;;;6.95;2.72;;;;;;;9.93;90.58;98976.44;5053478;28;20049;-66
2021/12/01 00:02:54;;;;;;;7.60;3.25;;;;;;;9.84;90.72;98974.91;5053980;28;20052;-64
2021/12/01 00:05:22;;;;;;;7.38;3.65;;;;;;;9.66;93.19;98969.56;5063526;28;20057;-65
2021/12/01 00:07:51;;;;;;;9.88;4.15;;;;;;;9.53;93.23;98977.06;5072204;28;20056;-66
2021/12/01 00:10:19;;;;;;;13.60;3.95;;;;;;;9.50;93.46;98968.59;5058445;28;20049;-66
2021/12/01 00:12:48;;;;;;;11.05;3.63;;;;;;;9.46;93.83;98968.47;5054917;28;20052;-66
2021/12/01 00:15:16;;;;;;;15.35;4.20;;;;;;;9.33;95.87;98953.72;5055614;28;20417;-66
2021/12/01 00:17:43;;;;;;;6.93;3.20;;;;;;;9.20;94.92;98959.59;5055507;28;20064;-66
2021/12/01 00:20:14;;;;;;;12.00;4.85;;;;;;;9.35;96.68;98962.53;5054727;28;20490;-65
2021/12/01 00:22:42;;;;;;;5.45;3.88;;;;;;;9.25;95.81;98954.63;5072778;28;20085;-66
2021/12/01 00:25:11;;;;;;;4.57;3.33;;;;;;;9.18;94.60;98945.25;5075165;28;20060;-67
2021/12/01 00:27:39;;;;;;;3.72;2.40;;;;;;;9.08;94.68;98941.72;5075305;28;20052;-67
2021/12/01 00:30:09;;;;;;;6.43;3.90;;;;;;;9.01;94.95;98949.00;5074915;28;20060;-66
2021/12/01 00:32:36;;;;;;;3.33;2.20;;;;;;;9.02;93.62;98939.53;5074426;28;20052;-65
2021/12/01 00:35:06;;;;;;;2.10;1.42;;;;;;;9.11;94.09;98937.44;5075014;28;20057;-65
2021/12/01 00:37:33;;;;;;;4.85;3.60;;;;;;;9.14;94.09;98929.25;5074314;28;20052;-66
2021/12/01 00:40:03;;;;;;;3.28;2.58;;;;;;;9.27;91.51;98932.06;5075109;28;20052;-66
2021/12/01 00:42:30;;;;;;;6.85;5.28;;;;;;;9.30;91.94;98928.59;5074733;28;20056;-66
2021/12/01 00:45:00;;;;;;;7.80;5.50;;;;;;;9.32;91.61;98940.16;5074450;28;20056;-65
2021/12/01 00:47:42;;;;;;;7.03;5.00;;;;;;;9.36;90.73;98932.78;5074181;28;20052;-65
2021/12/01 00:50:09;;;;;;;9.15;6.00;;;;;;;9.43;90.34;98916.38;5074006;28;20413;-65
2021/12/01 00:52:37;;;;;;;5.35;4.07;;;;;;;9.32;89.45;98906.84;5074331;28;20060;-65
2021/12/01 00:55:05;;;;;;;7.25;5.32;;;;;;;9.43;89.88;98904.41;5074196;28;20052;-65
2021/12/01 00:57:32;;;;;;;8.00;6.00;;;;;;;9.42;90.09;98897.25;5074358;28;20053;-65
2021/12/01 01:00:00;;;;;;;5.65;4.88;;;;;;;9.32;90.02;98884.59;5074354;28;20373;-65
2021/12/01 01:02:28;;;;;;;4.28;3.50;;;;;;;9.20;89.50;98879.84;5073840;28;20060;-65
2021/12/01 01:04:56;;;;;;;2.90;2.10;;;;;;;9.20;89.47;98890.97;5073941;28;20052;-65
2021/12/01 01:07:23;;;;;;;4.90;3.63;;;;;;;9.32;89.44;98884.59;5074254;28;20470;-66
2021/12/01 01:09:51;;;;;;;5.45;4.88;;;;;;;9.42;89.08;98873.03;5074065;28;20401;-66
2021/12/01 01:18:02;;;;;;;6.43;5.25;;;;;;;9.27;89.10;98860.63;5074216;28;20063;-66
2021/12/01 01:20:29;;;;;;;6.85;5.00;;;;;;;9.33;88.89;98889.03;5073859;28;20051;-66
2021/12/01 01:22:57;;;;;;;5.80;4.72;;;;;;;9.32;88.54;98849.31;5074058;28;20052;-66
2021/12/01 01:25:24;;;;;;;7.97;6.47;;;;;;;9.45;89.21;98850.13;5074038;28;20236;-66
2021/12/01 01:27:51;;;;;;;7.30;6.30;;;;;;;9.39;88.34;98839.59;5073990;28;20057;-66
2021/12/01 01:30:19;;;;;;;6.85;6.15;;;;;;;9.35;88.59;98837.50;5073841;28;20055;-68
2021/12/01 01:32:46;;;;;;;5.82;4.68;;;;;;;9.39;87.96;98834.03;5074021;28;20049;-68
2021/12/01 01:35:15;;;;;;;8.90;7.03;;;;;;;9.53;88.33;98842.81;5073801;28;20064;-66
2021/12/01 01:37:42;;;;;;;6.03;4.97;;;;;;;9.42;87.75;98823.03;5073075;28;20048;-66
2021/12/01 01:40:11;;;;;;;4.90;4.40;;;;;;;9.38;86.22;98824.06;5073221;28;20055;-66
2021/12/01 01:42:38;;;;;;;3.92;3.13;;;;;;;9.35;86.96;98831.13;5073484;28;20059;-66
2021/12/01 01:45:07;;;;;;;4.45;3.97;;;;;;;9.45;86.44;98840.97;5073361;28;20440;-66
2021/12/01 01:47:35;;;;;;;4.22;2.70;;;;;;;9.40;87.11;98819.78;5073274;28;20056;-66
2021/12/01 01:50:18;;;;;;;6.28;3.97;;;;;;;9.38;87.32;98802.63;5072964;28;20048;-66
2021/12/01 01:52:46;;;;;;;3.10;2.55;;;;;;;9.48;87.15;98802.19;5073241;28;20052;-66
2021/12/01 01:55:14;;;;;;;3.35;3.05;;;;;;;9.34;86.37;98799.78;5073027;28;20060;-66
2021/12/01 01:57:44;;;;;;;2.72;2.38;;;;;;;9.43;86.65;98780.19;5073340;28;20048;-66
2021/12/01 02:00:13;;;;;;;3.17;2.08;;;;;;;9.35;86.17;98801.38;5072996;28;20052;-66
2021/12/01 02:02:42;;;;;;;3.20;1.92;;;;;;;9.30;85.49;98792.44;5073111;28;20064;-68
2021/12/01 02:05:09;;;;;;;3.58;2.35;;;;;;;9.27;87.53;98774.50;5073048;28;20063;-66
2021/12/01 02:07:37;;;;;;;4.05;3.25;;;;;;;9.28;87.80;98765.03;5072374;28;20052;-66
2021/12/01 02:10:06;;;;;;;3.28;2.78;;;;;;;9.22;87.34;98752.53;5072634;28;20053;-66
2021/12/01 02:12:34;;;;;;;3.08;1.95;;;;;;;9.24;86.85;98750.22;5072928;28;20052;-66
2021/12/01 02:15:02;;;;;;;1.50;1.13;;;;;;;9.30;85.45;98742.44;5072853;28;20059;-66
2021/12/01 02:17:29;;;;;;;3.03;2.03;;;;;;;9.31;86.59;98746.84;5072895;28;20059;-66
2021/12/01 02:19:58;;;;;;;1.88;1.40;;;;;;;9.18;86.58;98745.25;5073069;28;20048;-66
2021/12/01 02:22:27;;;;;;;2.50;1.55;;;;;;;9.14;85.26;98725.69;5072668;28;20049;-67
2021/12/01 02:24:54;;;;;;;3.03;2.05;;;;;;;9.06;85.53;98712.72;5072567;28;20052;-67
2021/12/01 02:27:21;;;;;;;1.90;1.67;;;;;;;9.16;84.64;98712.25;5072866;28;20048;-67
2021/12/01 02:29:48;;;;;;;1.60;0.98;;;;;;;9.37;84.27;98698.22;5072052;28;20374;-67
2021/12/01 02:32:16;;;;;;;1.88;1.50;;;;;;;9.21;84.31;98695.34;5072504;28;20052;-67
2021/12/01 02:34:44;;;;;;;2.30;1.40;;;;;;;9.22;84.00;98680.31;5072724;28;20064;-66
2021/12/01 02:37:11;;;;;;;3.20;2.20;;;;;;;9.30;84.70;98668.25;5072000;28;20045;-68
2021/12/01 02:39:40;;;;;;;1.65;1.30;;;;;;;9.23;83.38;98679.13;5072647;28;20051;-68
2021/12/01 02:42:08;;;;;;;2.72;1.70;;;;;;;9.34;84.27;98652.50;5072501;28;20060;-68
2021/12/01 02:44:39;;;;;;;2.45;1.55;;;;;;;9.35;82.35;98656.09;5072377;28;20052;-68
2021/12/01 02:47:06;;;;;;;2.20;1.75;;;;;;;9.20;83.09;98657.63;5072541;28;20048;-69
2021/12/01 02:49:33;;;;;;;2.03;1.45;;;;;;;9.23;82.87;98645.78;5072362;28;20063;-69
2021/12/01 02:52:01;;;;;;;2.63;1.70;;;;;;;9.26;83.08;98642.34;5072570;28;20433;-69
2021/12/01 02:54:29;;;;;;;3.13;1.35;;;;;;;9.20;81.60;98634.56;5072218;28;20048;-69
2021/12/01 02:56:58;;;;;;;2.88;2.28;;;;;;;9.37;83.13;98639.88;5072331;28;20059;-69
2021/12/01 02:59:27;;;;;;;2.33;1.95;;;;;;;9.23;82.87;98648.56;5052375;28;20406;-69
2021/12/01 03:01:55;;;;;;;2.13;1.80;;;;;;;9.44;83.00;98631.72;5052693;28;20132;-68
2021/12/01 03:04:23;;;;;;;2.53;1.70;;;;;;;9.32;81.34;98621.47;5052957;28;20063;-68
2021/12/01 03:06:51;;;;;;;2.20;1.70;;;;;;;9.43;81.70;98613.47;5052592;28;20057;-68
2021/12/01 03:09:18;;;;;;;2.88;1.98;;;;;;;9.35;82.78;98611.63;5071530;28;20049;-68
2021/12/01 03:11:46;;;;;;;3.25;1.55;;;;;;;9.30;81.25;98604.34;5071905;28;20052;-67
2021/12/01 03:14:17;;;;;;;1.63;0.98;;;;;;;9.36;79.49;98621.56;5072694;28;20059;-67
2021/12/01 03:16:47;;;;;;;2.53;1.80;;;;;;;9.51;80.51;98650.59;5072232;28;20052;-67
2021/12/01 03:19:15;;;;;;;2.20;1.88;;;;;;;9.43;80.96;98598.72;5072636;28;20048;-67
2021/12/01 03:21:44;;;;;;;3.60;2.28;;;;;;;9.31;80.00;98600.41;5072362;28;20106;-67
2021/12/01 03:24:12;;;;;;;;;;;;;;;9.40;79.74;98597.47;5053000;28;20485;-66
2021/12/01 03:26:40;;;;;;;2.60;1.90;;;;;;;9.50;80.18;98590.63;5052215;28;19924;-66
2021/12/01 03:29:08;;;;;;;3.58;1.55;;;;;;;9.44;79.62;98592.84;5052176;28;20060;-66
2021/12/01 03:31:37;;;;;;;4.32;2.00;;;;;;;9.41;81.37;98588.00;5051745;28;20049;-66
2021/12/01 03:34:05;;;;;;;2.60;1.80;;;;;;;9.56;81.40;98586.44;5052761;28;20049;-66
2021/12/01 03:36:32;;;;;;;2.08;1.70;;;;;;;9.39;79.92;98584.75;5052013;28;20057;-65
2021/12/01 03:39:00;;;;;;;2.85;2.10;;;;;;;9.31;78.96;98599.59;5070711;28;20055;-64
2021/12/01 03:41:27;;;;;;;2.47;2.05;;;;;;;9.36;80.29;98574.34;5075217;28;20053;-64
2021/12/01 03:43:55;;;;;;;2.72;2.05;;;;;;;9.31;80.19;98577.38;5075652;28;20053;-64
2021/12/01 03:46:23;;;;;;;2.95;2.20;;;;;;;9.35;80.20;98576.31;5076148;28;20053;-64
2021/12/01 03:48:52;;;;;;;4.85;2.40;;;;;;;9.16;80.62;98573.38;5075912;28;20056;-64
2021/12/01 03:51:19;;;;;;;3.38;2.60;;;;;;;9.31;80.70;98561.50;5075479;28;20075;-64
2021/12/01 03:53:48;;;;;;;3.30;2.60;;;;;;;9.43;81.28;98574.56;5075171;28;20071;-64
2021/12/01 03:56:16;;;;;;;2.97;2.50;;;;;;;9.34;81.93;98552.47;5076035;28;20044;-64
2021/12/01 03:58:43;;;;;;;3.70;2.20;;;;;;;9.21;81.93;98566.75;5075880;28;20056;-64
2021/12/01 04:01:12;;;;;;;2.85;1.92;;;;;;;9.14;81.25;98539.59;5075356;28;20052;-64
2021/12/01 04:03:40;;;;;;;3.95;2.75;;;;;;;9.06;83.03;98532.19;5075963;28;20056;-64
2021/12/01 04:06:09;;;;;;;3.10;2.47;;;;;;;8.99;81.43;98537.53;5075346;28;20067;-64
2021/12/01 04:08:36;;;;;;;2.97;2.63;;;;;;;9.03;82.97;98542.06;5074941;28;20065;-64
2021/12/01 04:11:04;;;;;;;3.53;2.70;;;;;;;9.13;82.70;98522.13;5075270;28;20409;-64
2021/12/01 04:13:31;;;;;;;3.80;2.67;;;;;;;9.06;81.68;98523.88;5075298;28;20060;-64
2021/12/01 04:15:58;;;;;;;3.53;2.22;;;;;;;8.90;82.89;98502.41;5074577;28;20045;-64
2021/12/01 04:18:25;;;;;;;3.65;2.60;;;;;;;9.05;81.94;98519.47;5074825;28;20063;-64
2021/12/01 04:20:53;;;;;;;3.08;2.08;;;;;;;8.96;82.21;98508.50;5075259;28;20048;-65
2021/12/01 04:23:21;;;;;;;3.38;2.47;;;;;;;8.83;82.68;98510.50;5074833;28;20056;-65
2021/12/01 04:25:49;;;;;;;3.72;2.95;;;;;;;8.91;82.08;98492.91;5075168;28;20413;-65
2021/12/01 04:28:17;;;;;;;4.03;1.92;;;;;;;8.91;81.76;98494.88;5075414;28;20059;-65
2021/12/01 04:30:44;;;;;;;2.75;2.05;;;;;;;8.98;81.70;98472.06;5074647;28;20057;-65
2021/12/01 04:33:12;;;;;;;3.67;2.45;;;;;;;8.76;82.24;98465.91;5074644;28;20052;-64
2021/12/01 04:35:39;;;;;;;3.25;2.10;;;;;;;8.82;82.92;98452.56;5074724;28;20056;-64
2021/12/01 04:38:07;;;;;;;2.92;1.95;;;;;;;8.74;82.30;98457.91;5074938;28;20057;-64
2021/12/01 04:40:36;;;;;;;4.05;2.90;;;;;;;8.83;83.09;98451.41;5075091;28;20517;-63
2021/12/01 04:43:03;;;;;;;3.00;1.70;;;;;;;8.56;81.76;98453.00;5074600;28;20056;-63
2021/12/01 04:45:32;;;;;;;3.15;2.70;;;;;;;8.62;82.66;98432.16;5074800;28;20063;-63
2021/12/01 04:47:59;;;;;;;3.47;2.90;;;;;;;8.63;83.00;98425.44;5074666;28;20170;-63
2021/12/01 04:50:28;;;;;;;4.45;2.67;;;;;;;8.68;82.93;98412.13;5073732;28;20049;-63
2021/12/01 04:52:58;;;;;;;5.05;3.10;;;;;;;8.65;82.52;98400.91;5073550;28;20048;-63
2021/12/01 04:55:25;;;;;;;;;;;;;;;8.50;80.52;98400.53;5074764;28;20532;-65
2021/12/01 04:57:54;;;;;;;3.50;2.53;;;;;;;8.47;81.17;98417.06;5073835;28;19927;-65
2021/12/01 05:00:27;;;;;;;4.15;3.10;;;;;;;8.49;81.90;98387.00;5074627;28;20060;-65
2021/12/01 05:02:55;;;;;;;3.85;3.10;;;;;;;8.57;82.90;98407.41;5074490;28;20063;-65
2021/12/01 05:05:22;;;;;;;4.38;3.13;;;;;;;8.53;82.42;98422.00;5074485;28;20048;-65
2021/12/01 05:07:51;;;;;;;2.60;2.00;;;;;;;8.19;80.54;98439.97;5074457;28;20059;-65
2021/12/01 05:10:19;;;;;;;4.20;3.47;;;;;;;8.36;82.03;98411.16;5074384;28;20504;-65
2021/12/01 05:12:46;;;;;;;4.68;3.33;;;;;;;8.34;82.23;98413.50;5074280;28;20056;-64
2021/12/01 05:15:15;;;;;;;5.25;3.17;;;;;;;8.27;82.55;98386.34;5074727;28;20052;-64
2021/12/01 05:17:43;;;;;;;3.65;3.03;;;;;;;8.26;82.26;98398.59;5073671;28;20049;-64
2021/12/01 05:20:11;;;;;;;4.35;3.20;;;;;;;8.31;82.63;98397.53;5072386;28;20052;-65
2021/12/01 05:22:39;;;;;;;4.75;3.70;;;;;;;8.41;83.09;98380.44;5064722;28;20052;-65
2021/12/01 05:25:07;;;;;;;4.95;2.90;;;;;;;8.24;81.51;98359.31;5053887;28;20075;-66
2021/12/01 05:27:34;;;;;;;5.55;3.97;;;;;;;8.39;81.74;98368.03;5066456;28;20048;-67
2021/12/01 05:30:02;;;;;;;3.03;1.95;;;;;;;8.40;80.17;98384.34;5073830;28;20060;-67
2021/12/01 05:32:31;;;;;;;4.65;2.88;;;;;;;8.46;81.55;98346.91;5073668;28;20060;-67
2021/12/01 05:34:59;;;;;;;4.57;2.55;;;;;;;8.56;80.23;98336.44;5074406;28;20059;-67
2021/12/01 05:37:26;;;;;;;3.65;2.97;;;;;;;8.51;79.72;98340.28;5073504;28;20064;-67
2021/12/01 05:39:54;;;;;;;5.35;3.63;;;;;;;8.59;80.23;98342.13;5066842;28;20048;-67
2021/12/01 05:42:21;;;;;;;4.63;3.53;;;;;;;8.67;79.01;98315.34;5073681;28;20059;-67
2021/12/01 05:44:48;;;;;;;4.85;2.67;;;;;;;8.51;78.32;98324.44;5073462;28;20060;-67
2021/12/01 05:47:16;;;;;;;5.55;3.00;;;;;;;8.71;78.15;98310.69;5073229;28;20056;-67
2021/12/01 05:49:45;;;;;;;6.15;3.53;;;;;;;8.78;78.84;98276.78;5073626;28;20056;-67
2021/12/01 05:52:14;;;;;;;4.30;2.33;;;;;;;8.61;77.35;98275.13;5073407;28;20056;-67
2021/12/01 05:54:43;;;;;;;5.37;2.93;;;;;;;8.80;79.39;98269.72;5073045;28;20075;-67
2021/12/01 05:57:11;;;;;;;4.32;2.80;;;;;;;8.56;77.59;98280.97;5073482;28;20458;-67
2021/12/01 05:59:38;;;;;;;3.45;2.83;;;;;;;8.71;77.13;98266.28;5073451;28;20053;-66
2021/12/01 06:02:06;;;;;;;6.00;3.47;;;;;;;8.59;78.23;98252.50;5072926;28;20052;-66
2021/12/01 06:04:33;;;;;;;4.65;3.28;;;;;;;8.57;77.50;98243.72;5073028;28;20477;-66
2021/12/01 06:07:02;;;;;;;6.13;2.67;;;;;;;8.65;77.19;98238.00;5073094;28;20053;-66
2021/12/01 06:09:29;;;;;;;4.53;3.50;;;;;;;8.69;77.73;98218.66;5072120;28;20056;-66
2021/12/01 06:11:57;;;;;;;4.03;3.05;;;;;;;8.74;77.32;98205.34;5072919;28;20048;-66
2021/12/01 06:14:24;;;;;;;4.07;3.28;;;;;;;8.80;76.24;98205.88;5072662;28;20495;-66
2021/12/01 06:16:51;;;;;;;4.80;3.05;;;;;;;8.74;77.42;98198.97;5072553;28;20060;-66
2021/12/01 06:19:19;;;;;;;3.15;2.05;;;;;;;8.78;76.40;98215.72;5072673;28;20048;-66
2021/12/01 06:21:46;;;;;;;4.03;2.63;;;;;;;8.63;77.14;98203.44;5072326;28;20059;-66
2021/12/01 06:24:15;;;;;;;4.28;3.25;;;;;;;8.80;78.33;98178.13;5072790;28;20048;-66
2021/12/01 06:26:42;;;;;;;4.15;2.28;;;;;;;8.65;76.13;98176.13;5072753;28;20056;-66
2021/12/01 06:29:10;;;;;;;3.50;2.40;;;;;;;8.65;77.62;98163.09;5072625;28;20481;-66
2021/12/01 06:31:37;;;;;;;4.05;2.60;;;;;;;8.64;76.90;98164.25;5072147;28;20055;-66
2021/12/01 06:34:04;;;;;;;4.40;3.10;;;;;;;8.65;77.20;98209.44;5072076;28;20505;-66
2021/12/01 06:36:32;;;;;;;4.30;2.65;;;;;;;8.64;77.37;98180.88;5072968;28;20052;-66
2021/12/01 06:38:59;;;;;;;4.03;2.28;;;;;;;8.65;75.53;98142.84;5071157;28;20045;-66
2021/12/01 06:41:28;;;;;;;3.83;2.50;;;;;;;8.51;75.67;98155.19;5072372;28;20052;-66
2021/12/01 06:43:55;;;;;;;2.47;1.77;;;;;;;8.46;75.73;98143.56;5072072;28;20052;-66
2021/12/01 06:46:24;;;;;;;3.70;2.50;;;;;;;8.68;78.07;98131.03;5059468;28;20052;-66
2021/12/01 06:48:51;;;;;;;3.25;1.90;;;;;;;8.49;77.20;98134.53;5072339;28;20067;-66
2021/12/01 06:51:19;;;;;;;3.97;2.45;;;;;;;8.57;78.35;98128.00;5068655;28;20067;-66
2021/12/01 06:53:49;;;;;;;4.00;2.20;;;;;;;8.72;78.29;98126.38;5072108;28;20049;-66
2021/12/01 06:56:17;;;;;;;3.13;2.20;;;;;;;8.52;77.29;98117.16;5068788;28;20052;-66
2021/12/01 06:58:46;;;;;;;2.70;1.88;;;;;;;8.58;77.39;98118.50;5072581;28;20055;-66
2021/12/01 07:01:14;;;;;;;;;;;;;;;8.30;76.75;98105.50;5071700;28;20375;-66
2021/12/01 07:03:41;;;;;;;2.75;2.00;;;;;;;8.41;78.14;98116.09;5072998;28;19921;-66
2021/12/01 07:06:09;;;;;;;2.25;1.45;;;;;;;8.36;78.40;98114.38;5072218;28;20071;-66
2021/12/01 07:08:38;;;;;;;3.00;1.80;;;;;;;8.35;78.13;98115.53;5072056;28;20060;-66
2021/12/01 07:11:06;;;;;;;2.72;1.50;;;;;;;8.36;78.52;98133.78;5056372;28;20425;-66
2021/12/01 07:13:34;;;;;;;2.75;1.90;;;;;;;8.51;79.50;98085.84;5072117;28;20470;-66
2021/12/01 07:16:04;;;;;;;1.85;1.38;;;;;;;8.36;77.99;98113.53;5071689;28;20060;-66
2021/12/01 07:18:31;;;;;;;3.10;1.95;;;;;;;8.38;79.73;98084.31;5072374;28;20044;-66
2021/12/01 07:21:03;;;;;;;2.75;1.58;;;;;;;8.17;79.32;98105.94;5070743;28;20049;-66
2021/12/01 07:23:31;;;;;;;4.57;3.03;;;;;;;8.47;80.02;98084.94;5073159;28;20048;-65
2021/12/01 07:25:58;;;;;;;2.88;1.58;;;;;;;8.25;79.22;98077.22;5072149;28;20064;-66
2021/12/01 07:28:25;;;;;;;2.15;1.40;;;;;;;8.13;78.28;98081.69;5072165;28;20059;-66
2021/12/01 07:30:53;;;;;;;2.15;1.48;;;;;;;8.10;80.56;98074.09;5071906;28;20052;-66
2021/12/01 07:33:23;;;;;;;2.63;1.20;;;;;;;8.07;79.94;98074.00;5072036;28;20071;-66
2021/12/01 07:35:51;;;;;;;2.15;1.30;;;;;;;7.95;80.70;98063.00;5070984;28;20060;-66
2021/12/01 07:38:18;;;;;;;1.80;1.17;;;;;;;7.96;81.65;98054.34;5071538;28;20044;-66
2021/12/01 07:40:45;;;;;;;2.08;1.20;;;;;;;8.12;80.78;98062.66;5072666;28;20393;-66
2021/12/01 07:43:12;;;;;;;2.35;1.52;;;;;;;8.17;81.51;98036.59;5071368;28;20048;-66
2021/12/01 07:45:43;;;;;;;1.60;1.08;;;;;;;8.10;80.21;98037.25;5071707;28;20063;-66
2021/12/01 07:48:10;;;;;;;1.63;1.02;;;;;;;8.10;80.19;98076.84;5072100;28;20420;-66
2021/12/01 07:50:40;;;;;;;1.20;0.88;;;;;;;8.15;79.90;98061.94;5071826;28;20057;-66
2021/12/01 07:53:07;;;;;;;;;;;;;;;8.27;79.09;98053.53;5072448;28;20068;-66
2021/12/01 07:55:34;;;;;;;2.45;1.30;;;;;;;8.42;80.31;98026.97;5071149;28;19920;-66
2021/12/01 07:58:02;;;;;;;1.25;0.68;;;;;;;8.44;79.28;98015.50;5071829;28;20049;-66
2021/12/01 08:00:29;;;;;;;1.83;0.90;;;;;;;8.22;79.60;98031.59;5071893;28;20551;-66
2021/12/01 08:02:57;;;;;;;2.17;0.90;;;;;;;8.34;80.88;98020.41;5071656;28;20056;-66
2021/12/01 08:05:24;;;;;;;1.70;0.82;;;;;;;8.13;79.97;98037.34;5071806;28;20060;-65
2021/12/01 08:07:55;;;;;;;1.13;0.73;;;;;;;8.20;80.81;98013.72;5071396;28;20059;-65
2021/12/01 08:10:23;;;;;;;1.90;1.00;;;;;;;8.33;80.32;98002.16;5072488;28;20061;-65
2021/12/01 08:12:50;;;;;;;1.58;0.93;;;;;;;8.24;79.56;98007.09;5072139;28;20482;-65
2021/12/01 08:15:18;;;;;;;1.55;0.70;;;;;;;8.18;80.09;98002.19;5071777;28;20056;-65
2021/12/01 08:17:45;;;;;;;1.60;0.60;;;;;;;8.13;80.71;98020.72;5071995;28;20048;-65
2021/12/01 08:20:13;;;;;;;1.30;0.80;;;;;;;8.16;82.09;98007.28;5071465;28;20072;-65
2021/12/01 08:22:40;;;;;;;1.02;0.65;;;;;;;8.08;82.20;97997.97;5059705;28;20060;-61
2021/12/01 08:25:09;;;;;;;1.40;0.93;;;;;;;8.15;81.71;98034.22;5064685;28;20056;-60
2021/12/01 08:27:37;;;;;;;1.70;0.80;;;;;;;8.04;82.02;98013.72;5058313;28;20052;-60
2021/12/01 08:30:06;;;;;;;1.40;0.88;;;;;;;8.03;82.25;97995.50;5061751;28;20040;-60
2021/12/01 08:32:34;;;;;;;2.10;0.93;;;;;;;8.06;82.05;98009.44;5065553;28;20048;-60
2021/12/01 08:35:02;;;;;;;1.60;0.80;;;;;;;8.26;82.58;98010.31;5073794;28;20504;-60
2021/12/01 08:37:29;;;;;;;1.67;0.85;;;;;;;8.27;81.55;98011.13;5071398;28;20056;-60
2021/12/01 08:39:56;;;;;;;1.80;1.00;;;;;;;8.22;81.80;97973.38;5063876;28;20497;-60
2021/12/01 08:42:25;;;;;;;1.73;0.80;;;;;;;8.18;82.00;97982.78;5051959;28;20410;-60
2021/12/01 08:44:53;;;;;;;1.40;1.00;;;;;;;8.23;82.16;97999.94;5060720;28;20055;-60
2021/12/01 08:47:24;;;;;;;2.00;1.20;;;;;;;8.19;82.28;97978.81;5072632;28;20052;-60
2021/12/01 08:49:52;;;;;;;1.48;0.95;;;;;;;8.19;82.83;97978.81;5072753;28;20417;-60
2021/12/01 08:52:20;;;;;;;2.20;1.10;;;;;;;8.36;82.43;97985.97;5060532;28;20049;-60
2021/12/01 08:54:47;;;;;;;1.80;0.98;;;;;;;8.30;82.38;97991.78;5053340;28;20049;-60
2021/12/01 08:57:14;;;;;;;1.20;0.63;;;;;;;8.41;81.65;97980.97;5053416;28;20508;-60
2021/12/01 08:59:44;;;;;;;2.83;1.25;;;;;;;8.31;82.35;97984.28;5071926;28;20063;-62
2021/12/01 09:02:12;;;;;;;;;;;;;;;8.29;82.24;97981.88;5069994;28;20056;-61
2021/12/01 09:04:39;;;;;;;2.42;0.90;;;;;;;8.33;82.22;97968.88;5053583;28;19924;-60
2021/12/01 09:07:06;;;;;;;1.05;0.63;;;;;;;8.41;82.19;97969.88;5061977;28;20057;-61
2021/12/01 09:09:34;;;;;;;0.75;0.47;;;;;;;8.32;82.44;97970.03;5073570;28;20055;-60
2021/12/01 09:12:02;;;;;;;1.10;0.60;;;;;;;8.43;81.77;97961.19;5072902;28;20063;-60
2021/12/01 09:14:30;;;;;;;1.50;0.80;;;;;;;8.52;82.28;97953.47;5059472;28;20414;-61
2021/12/01 09:16:59;;;;;;;1.60;0.60;;;;;;;8.45;82.97;97970.75;5062237;28;20053;-60
2021/12/01 09:19:26;;;;;;;1.37;0.60;;;;;;;8.59;82.41;97958.38;5073235;28;21685;-60
2021/12/01 09:21:53;;;;;;;3.20;0.90;;;;;;;8.50;82.16;97955.81;5072918;28;20049;-60
2021/12/01 09:24:21;;;;;;;2.25;0.60;;;;;;;8.40;83.57;97956.34;5072403;28;20055;-59
2021/12/01 09:26:49;;;;;;;1.80;0.60;;;;;;;8.45;82.62;97947.78;5062041;28;20067;-60
2021/12/01 09:29:17;;;;;;;0.65;0.30;;;;;;;8.31;83.33;97948.22;5061227;28;20068;-61
2021/12/01 09:31:45;;;;;;;4.80;0.93;;;;;;;8.26;85.13;97934.63;5063256;28;20609;-60
2021/12/01 09:34:13;;;;;;;2.15;0.52;;;;;;;8.35;86.06;97932.47;5072425;28;20055;-61
2021/12/01 09:36:41;;;;;;;1.73;0.65;;;;;;;8.31;85.96;97943.47;5068023;28;20048;-60
2021/12/01 09:39:08;;;;;;;1.83;0.60;;;;;;;8.33;84.17;97918.16;5065751;28;20056;-60
2021/12/01 09:41:36;;;;;;;1.63;0.70;;;;;;;8.39;84.63;97947.22;5068210;28;20051;-61
2021/12/01 09:44:04;;;;;;;0.77;0.50;;;;;;;8.27;84.73;97920.41;5072332;28;20052;-61
2021/12/01 09:46:31;;;;;;;0.93;0.50;;;;;;;8.14;84.77;97924.47;5071959;28;20057;-61
2021/12/01 09:48:59;;;;;;;1.10;0.60;;;;;;;8.33;85.18;97910.63;5071832;28;20075;-61
2021/12/01 09:51:30;;;;;;;2.00;0.70;;;;;;;8.33;84.31;97918.16;5071873;28;20049;-61
2021/12/01 09:54:00;;;;;;;3.00;1.00;;;;;;;8.27;84.49;97895.47;5065122;28;20053;-61
2021/12/01 09:56:28;;;;;;;;;;;;;;;8.24;83.53;97903.69;5071046;28;20051;-61
2021/12/01 09:58:55;;;;;;;2.15;0.77;;;;;;;8.28;84.81;97890.72;5071929;28;19928;-63
2021/12/01 10:01:24;;;;;;;1.85;0.50;;;;;;;8.40;84.17;97890.59;5064201;28;20509;-64
2021/12/01 10:03:52;;;;;;;1.38;0.70;;;;;;;8.31;83.84;97906.63;5051558;28;20519;-63
2021/12/01 10:06:21;;;;;;;1.80;0.77;;;;;;;8.41;85.07;97896.97;5066841;28;20074;-61
2021/12/01 10:08:51;;;;;;;0.93;0.57;;;;;;;8.44;84.81;97882.34;5071398;28;20057;-61
2021/12/01 10:11:21;;;;;;;3.97;1.00;;;;;;;8.52;84.66;97876.63;5064473;28;20409;-63
2021/12/01 10:13:53;;;;;;;2.00;0.90;;;;;;;8.33;84.82;97874.56;5053237;28;20056;-62
2021/12/01 10:16:24;;;;;;;1.58;0.70;;;;;;;8.44;85.28;97869.31;5069447;28;20055;-62
2021/12/01 10:18:55;;;;;;;1.40;0.60;;;;;;;8.39;85.63;97865.97;5071190;28;20052;-63
2021/12/01 10:21:24;;;;;;;1.40;0.60;;;;;;;8.36;85.43;97875.84;5070478;28;20052;-64
2021/12/01 10:23:55;;;;;;;0.73;0.32;;;;;;;8.48;84.43;97864.63;5067569;28;20044;-63
2021/12/01 10:26:25;;;;;;;2.45;0.65;;;;;;;8.37;84.91;97855.25;5056027;28;20056;-63
2021/12/01 10:28:54;;;;;;;1.15;0.50;;;;;;;8.61;85.34;97840.31;5054909;28;20051;-64
2021/12/01 10:31:40;;;;;;;1.38;0.80;;;;;;;8.70;84.74;97840.88;5069788;28;20048;-63
2021/12/01 10:34:18;;;;;;;1.60;0.60;;;;;;;8.74;84.17;97838.19;5057900;28;20514;-63
2021/12/01 10:36:47;;;;;;;1.95;0.77;;;;;;;8.71;83.47;97838.91;5062038;28;20053;-63
2021/12/01 10:39:16;;;;;;;2.75;1.00;;;;;;;8.90;84.87;97830.56;5070870;28;20064;-63
2021/12/01 10:41:44;;;;;;;0.50;0.30;;;;;;;8.82;84.86;97823.28;5070836;28;20405;-64
2021/12/01 10:44:13;;;;;;;0.80;0.50;;;;;;;8.81;84.73;97848.63;5071297;28;20048;-63
2021/12/01 10:46:46;;;;;;;0.82;0.50;;;;;;;8.75;84.78;97820.34;5061304;28;20441;-63
2021/12/01 10:49:14;;;;;;;2.00;0.90;;;;;;;8.60;85.99;97819.28;5055212;28;20056;-64
2021/12/01 10:51:44;;;;;;;1.60;0.70;;;;;;;8.76;84.93;97830.31;5070746;28;20064;-64
2021/12/01 10:54:21;;;;;;;1.20;0.57;;;;;;;8.77;84.89;97814.44;5066969;28;20049;-63
2021/12/01 10:57:08;;;;;;;1.00;0.50;;;;;;;8.77;84.95;97801.34;5056569;28;20060;-63
2021/12/01 10:59:44;;;;;;;2.47;1.10;;;;;;;9.00;85.18;97795.03;5067980;28;20053;-64
2021/12/01 11:02:13;;;;;;;2.70;1.08;;;;;;;8.87;83.90;97797.19;5068358;28;20052;-63
2021/12/01 11:04:45;;;;;;;0.90;0.50;;;;;;;9.05;82.74;97792.75;5062376;28;20404;-64
2021/12/01 11:07:26;;;;;;;0.93;0.57;;;;;;;9.04;84.54;97777.25;5069086;28;20055;-65
2021/12/01 11:10:15;;;;;;;1.60;0.93;;;;;;;9.08;84.74;97763.44;5071075;28;20543;-64
2021/12/01 11:12:43;;;;;;;1.60;0.80;;;;;;;9.12;83.19;97773.44;5070134;28;20048;-64
2021/12/01 11:15:21;;;;;;;1.55;0.60;;;;;;;9.01;84.75;97768.84;5073234;28;20052;-64
2021/12/01 11:17:49;;;;;;;1.15;0.60;;;;;;;9.03;84.33;97767.34;5069955;28;20049;-64
2021/12/01 11:20:40;;;;;;;12.38;1.45;;;;;;;9.09;84.63;97765.84;5070870;28;20063;-64
2021/12/01 11:23:14;;;;;;;4.60;1.02;;;;;;;9.14;85.99;97773.88;5070914;28;20056;-63
2021/12/01 11:25:45;;;;;;;1.55;0.80;;;;;;;9.00;86.62;97762.50;5071155;28;20512;-63
2021/12/01 11:28:15;;;;;;;1.10;0.65;;;;;;;9.05;84.97;97770.53;5064214;28;20417;-63
2021/12/01 11:30:44;;;;;;;1.58;0.90;;;;;;;9.06;85.80;97760.22;5057629;28;20540;-63
2021/12/01 11:33:13;;;;;;;1.60;1.07;;;;;;;9.29;85.47;97774.91;5060474;28;20053;-63
2021/12/01 11:35:42;;;;;;;2.78;1.08;;;;;;;9.20;84.66;97759.66;5064545;28;20433;-63
2021/12/01 11:38:11;;;;;;;2.95;1.20;;;;;;;9.24;85.79;97755.78;5059843;28;20049;-63
2021/12/01 11:40:40;;;;;;;2.45;1.20;;;;;;;9.19;85.03;97749.72;5068077;28;20057;-63
2021/12/01 11:43:12;;;;;;;1.75;1.20;;;;;;;9.14;85.58;97759.97;5064896;28;20064;-64
2021/12/01 11:45:41;;;;;;;1.20;1.00;;;;;;;9.34;85.29;97738.50;5065153;28;20052;-64
2021/12/01 11:48:10;;;;;;;1.30;0.98;;;;;;;9.24;84.30;97746.63;5059875;28;20410;-64
2021/12/01 11:50:46;;;;;;;4.55;1.60;;;;;;;9.43;84.86;97734.63;5063237;28;20063;-64
2021/12/01 11:53:20;;;;;;;5.10;1.33;;;;;;;9.52;85.04;97740.72;5062125;28;20049;-64
2021/12/01 11:55:54;;;;;;;1.80;1.25;;;;;;;9.40;84.99;97736.16;5068040;28;20060;-64